ADDS METAR Data INFO
IDs: Format: Raw Decoded Include TAF

Data at: 1532 UTC 18 Jun 2018

KTLH 181453Z 00000KT 10SM SCT250 30/22 A3015 RMK AO2 SLP209 T03000222 50005
KTLH 181353Z 10005KT 10SM SCT250 28/22 A3015 RMK AO2 SLP209 T02830222
KTLH 181253Z 04004KT 10SM BCFG CLR 27/23 A3015 RMK AO2 SLP207 T02720228
KTLH 181153Z 00000KT 10SM BCFG BKN250 26/22 A3014 RMK AO2 SLP203 T02560222 10256 20228 52013
KTLH 181053Z 00000KT 10SM BCFG SCT250 24/22 A3012 RMK AO2 SLP199 T02390222
KTLH 180953Z 00000KT 10SM SCT250 23/22 A3011 RMK AO2 SLP194 T02280217
KTLH 180853Z AUTO 00000KT 10SM CLR 24/23 A3010 RMK AO2 SLP190 T02390228 55006
KTLH 180753Z AUTO 00000KT 10SM CLR 24/22 A3009 RMK AO2 SLP188 T02390222
KTLH 180653Z AUTO 00000KT 10SM CLR 24/22 A3010 RMK AO2 SLP190 T02440222
KTLH 180553Z AUTO 00000KT 10SM CLR 24/23 A3011 RMK AO2 SLP196 T02440228 10294 20244 58010
KTLH 180453Z AUTO 00000KT 10SM CLR 26/23 A3012 RMK AO2 SLP199 T02610228 403390233
KTLH 180353Z AUTO 24003KT 10SM CLR 26/23 A3014 RMK AO2 SLP204 T02610228
KTLH 180253Z 00000KT 10SM BKN050 27/23 A3014 RMK AO2 SLP206 LAST T02720228 53017
KTLH 180153Z 36003KT 10SM SCT120 BKN250 28/22 A3013 RMK AO2 SLP201 T02830222
KTLH 180053Z 23004KT 10SM FEW060 SCT120 BKN250 28/23 A3010 RMK AO2 SLP192 T02830233
KTLH 172353Z 20005KT 10SM FEW050 SCT110 BKN250 29/23 A3009 RMK AO2 LTG DSNT NE SLP189 T02940233 10339 20294 53005
KTLH 172253Z 32003KT 10SM FEW060 SCT120 BKN250 32/21 A3007 RMK AO2 LTG DSNT NE SLP182 T03170211
KTLH 172153Z 29006KT 10SM FEW060 BKN250 32/19 A3007 RMK AO2 LTG DSNT SW SLP182 T03220194
KTLH 172053Z 34006KT 10SM SCT050 BKN250 33/20 A3008 RMK AO2 SLP184 T03330200 56016
KTLH 171953Z 36006KT 10SM SCT050 BKN250 33/21 A3009 RMK AO2 SLP188 T03280211
KTLH 171853Z COR 00000KT 10SM SCT046 BKN250 33/21 A3010 RMK AO2 SLP191 T03280211
KTLH 171753Z 00000KT 10SM SCT042 SCT110 BKN250 31/21 A3013 RMK AO2 SLP200 T03110211 10317 20244 58012
KTLH 171653Z 35005KT 10SM FEW036 BKN250 31/22 A3014 RMK AO2 SLP206 T03110222
KTLH 171553Z 34004KT 10SM SCT030 SCT150 BKN250 31/22 A3016 RMK AO2 SLP213 T03060222
KTLH 171453Z 27003KT 10SM FEW027 BKN150 29/23 A3016 RMK AO2 SLP212 T02940228 51013
KTLH 171353Z 00000KT 10SM FEW016 BKN150 28/24 A3016 RMK AO2 SLP211 T02780239
KTLH 171253Z 00000KT 10SM SCT150 BKN250 26/24 A3015 RMK AO2 SLP207 T02610239
KTLH 171153Z 00000KT 10SM SCT140 SCT250 24/23 A3012 RMK AO2 SLP199 70043 T02440233 10244 20233 53016
KTLH 171053Z 00000KT 10SM BCFG BKN140 24/22 A3010 RMK AO2 SLP193 VIRGA E T02390222
KTLH 170953Z 00000KT 10SM BKN140 24/23 A3009 RMK AO2 SLP186 T02390228
KTLH 170853Z AUTO 00000KT 10SM CLR 24/23 A3008 RMK AO2 SLP183 T02390228 55003
KTLH 170753Z AUTO 00000KT 10SM CLR 23/23 A3007 RMK AO2 SLP180 T02330228
KTLH 170653Z AUTO 18003KT 10SM CLR 23/23 A3007 RMK AO2 SLP181 T02330228
KTLH 170553Z AUTO 00000KT 10SM CLR 24/23 A3009 RMK AO2 SLP187 T02440228 10256 20244 50003
KTLH 170453Z AUTO 00000KT 10SM CLR 24/23 A3010 RMK AO2 SLP193 T02440233 403060222
KTLH 170353Z AUTO 00000KT 10SM CLR 24/23 A3009 RMK AO2 SLP189 T02440233